ACT        NSW        VIC        QLD        SA        WA        TAS        NT        INFO        CALC            by VK5ZD

Past Date/Time: (dd/mm/yyyy hh:mm or blank for current data)    

  Atmospheric Gas Attenuation - ITU Rec 676-11   --------------- dB/100km ---------------
WA Stations Date Time Temp RH % AH g/m3 Dew Point Wind Direction Speed kph Gust kph Barometer mB Rainfall Since 9am 24GHz 47GHz 76GHz 122GHz 134GHz 241GHz
Albany Airport 03/09 07:40 10.9 95 9.45 10.1 7 9 1018.4 2.6 21.6 28.4 45.1 118.6 114.5 394.4
Badgingarra 03/09 07:40 10.9 80 7.96 7.6 6 7 1013.1 0 18.4 25.7 38.6 101.3 93.5 320.8
Barimunya 03/09 07:40 21.7 30 5.72 3.4 9 13 1013.1 0 13.2 19.7 26.2 68.3 56.6 192.7
Barrow Island 03/09 07:40 23.2 59 12.27 14.7 26 30 1015.9 0 26.8 29.0 49.4 130.1 133.0 460.8
Bickley 03/09 07:40 11.6 98 10.19 11.3 4 7 1013.1 4.4 23.1 29.3 47.7 125.5 123.5 426.0
Boolgeeda 03/09 07:40 20.2 39 6.82 5.8 7 11 1013.1 0 15.5 21.5 30.4 79.5 69.8 239.1
Bridgetown 03/09 07:40 9.4 99 8.96 9.3 0 0 1018.6 0.8 20.6 28.1 43.9 115.2 109.8 377.6
Broome 03/09 07:40 26.1 80 19.59 22.4 13 17 1016.8 0.2 42.1 40.8 79.1 209.2 231.1 802.8
Bunbury 03/09 07:40 11.7 102 10.67 11.7 4 7 1018.7 0.4 24.1 30.3 50.0 131.7 130.9 451.8
Busselton Airport 03/09 07:40 9.8 100 9.28 9.8 6 9 1018.6 1.2 21.2 28.5 45.1 118.4 113.8 391.6
Cape Leeuwin 03/09 07:40 12.8 92 10.31 11.5 17 22 1017.9 1.2 23.3 29.3 47.7 125.5 123.8 427.0
Cape Naturaliste 03/09 07:40 13.2 94 10.79 12.3 13 17 1018.1 1.2 24.3 30.0 49.6 130.5 130.0 448.9
Carnarvon 03/09 07:40 16.2 65 8.96 9.6 19 24 1020.3 0 20.2 26.0 40.3 105.8 100.6 346.5
Christmas Creek 03/09 07:40 23.5 27 5.71 3.4 11 17 1016.9 0 13.1 19.5 25.8 67.1 55.4 188.8
Christmas Island 03/09 07:40 24.1 84 18.38 21.2 22 37 1015.3 0 39.7 39.4 75.3 199.1 218.2 757.7
Collie East 03/09 07:40 7.4 99 7.88 7.3 0 0 1013.1 1 18.3 26.6 40.0 105.1 96.7 331.6
Coondewanna 03/09 07:40 21.3 29 5.41 2.6 11 17 1013.1 0 12.6 19.4 25.4 66.0 53.5 182.0
Cunderdin Airport 03/09 07:40 9.2 97 8.66 8.7 0 0 1020.6 0 19.9 27.7 42.8 112.3 105.9 364.2
Curtin 03/09 07:40 24.8 78 17.75 20.7 11 15 1016.5 0 38.3 37.9 71.8 189.7 206.8 718.1
Dalwallinu 03/09 07:40 8.8 94 8.18 7.9 2 6 1020.4 0 18.9 27.0 40.9 107.3 99.7 342.3
Derby 03/09 07:40 25 77 17.72 20.7 11 13 1017.2 0 38.2 37.8 71.5 188.9 205.9 715.0
Dwellingup 03/09 07:40 8 97 8.02 7.6 7 11 1019.3 9.2 18.6 26.9 40.6 106.5 98.4 337.6
Eliwana Airport 03/09 07:40 20.6 37 6.62 5.4 2 6 1013.1 0 15.1 21.2 29.6 77.2 67.2 230.0
Esperance 03/09 07:40 13.4 94 10.93 12.5 6 7 1019.7 0.6 24.6 30.2 50.2 132.0 131.9 455.3
Esperance Airport 03/09 07:40 12.6 95 10.51 11.8 4 6 1019.8 1.8 23.7 29.8 48.8 128.4 127.2 438.8
Eucla 03/09 07:40 15.8 65 8.75 9.2 9 13 1021.5 0 19.8 25.9 39.8 104.3 98.5 339.0
Fitzroy Crossing 03/09 07:40 26.1 48 11.75 14.2 13 17 1017.4 0 25.6 27.3 45.7 120.3 121.8 421.9
Forrest 03/09 07:40 15.6 56 7.45 6.9 1020.9 0 17.1 23.9 34.8 91.1 82.2 281.8
Fortescue Dave Forrest 03/09 07:40 23.2 28 5.82 3.7 15 24 1013.1 0 13.4 19.5 26.1 67.9 56.6 192.9
Garden Island 03/09 07:40 14.1 99 12.02 13.9 17 22 1019.5 5.8 26.9 31.9 54.5 143.7 146.5 506.7
Geraldton Airport 03/09 07:40 8.2 92 7.71 7 17 22 1021.3 0 17.9 26.4 39.3 102.9 94.0 322.1
Gerangamete (Cfa) 03/09 09:30 12.9 80 9.02 9.6 24 26 1013.1 0 20.5 26.8 42.0 110.2 105.2 362.2
Giles* 03/09 09:10 25.8 23 5.54 3.1 15 20 1018.1 0 12.7 18.8 24.6 63.9 52.2 177.9
Gingin Airport 03/09 07:40 12.9 98 11.05 12.6 13 17 1020.3 1 24.9 30.6 51.0 134.3 134.5 464.6
Golden Grove 03/09 07:40 9.6 75 6.87 5.4 7 9 1013.1 0 16.1 24.3 34.8 91.2 80.5 275.1
Gooseberry Hill 03/09 07:40 12.9 101 11.38 12.9 7 9 1013.1 0 25.6 30.9 52.1 137.4 138.6 478.9
Gudai-Darri Mine 03/09 07:40 25.2 26 6.05 4.3 15 20 1013.1 0 13.8 19.4 26.2 68.3 57.6 196.7
Halls Creek 03/09 09:10 24.9 29 6.64 5.7 6 7 1017.6 0 15.0 20.4 28.3 73.9 64.2 220.0
Hopetoun North 03/09 07:40 12.8 98 10.98 12.5 7 9 1018.9 6.4 24.7 30.5 50.7 133.5 133.5 461.2
Iron Bridge Mine 03/09 07:40 23.5 35 7.4 7.2 2 4 1013.1 0 16.6 21.6 31.2 81.5 73.4 252.1
Jacup 03/09 07:40 10.4 100 9.64 10.4 13 17 1018.9 2.6 22.0 28.9 46.3 121.7 118.1 406.7
Jandakot 03/09 07:40 13.5 97 11.35 13 7 9 1019.7 2.2 25.5 30.9 52.0 136.8 137.8 476.1
Kalgoorlie-Boulder 03/09 07:40 11.2 71 7.2 6.1 6 9 1020 0 16.7 24.6 35.7 93.5 83.6 286.2
Kalumburu 03/09 09:10 23.8 87 18.71 21.5 2 6 1017.9 0 40.4 40.3 77.3 204.5 224.6 779.9
Karijini North 03/09 07:40 25.7 26 6.22 4.8 0 7 1015.4 0 14.1 19.6 26.6 69.4 59.1 202.1
Karratha 03/09 07:40 23.4 85 17.87 20.7 0 0 1015.3 0 38.7 38.7 73.6 194.5 212.4 737.3
Katanning Rs 03/09 07:40 10.1 96 9.08 9.5 17 24 1018.8 0.8 20.8 28.0 44.0 115.6 110.5 380.2
Koolan Island / Koolan Central 03/09 07:40 26.4 73 18.17 21.2 2 6 1013.1 0 39.1 37.8 72.0 190.3 208.2 723.1
Kununurra Airport 03/09 09:10 25.9 67 16.22 19.3 4 9 1018.4 0 35.0 34.8 64.1 169.2 181.9 631.5
Lake Grace 03/09 07:40 11.8 97 10.21 11.3 9 13 1019.3 1.2 23.1 29.5 48.0 126.1 124.1 428.0
Lancelin (Defence) 03/09 07:40 13.7 100 11.84 13.7 7 15 1020.1 0 26.5 31.8 54.0 142.3 144.7 500.2
Laverton 03/09 07:40 13 64 7.26 6.4 24 32 1019.3 0 16.8 24.2 35.2 91.9 82.4 282.2
Learmonth 03/09 07:40 17.6 66 9.9 11.2 20 28 1018.5 0 22.2 27.1 43.3 113.7 110.9 382.6
Legendre Island 03/09 07:40 23.7 85 18.18 21 7 9 1015.6 0 39.3 39.2 74.8 197.7 216.3 751.1
Leinster 03/09 07:40 12.8 56 6.27 4.3 13 15 1018.6 0 14.7 22.7 31.4 82.1 70.1 239.3
Leonora Airport 03/09 07:40 10.4 68 6.56 4.8 11 13 1019.9 0 15.4 23.8 33.6 87.7 76.1 259.8
Lombadina 03/09 07:40 26.2 76 18.71 21.6 6 11 1013.1 0 40.2 38.9 74.6 197.4 216.8 753.1
Mandora 03/09 06:46 22.1 98 19.13 21.8 0 0 1015.5 0 41.5 41.8 81.0 214.3 236.2 820.0
Mandurah 03/09 07:40 14.3 90 11.06 12.7 11 17 1019 2 24.8 30.1 50.1 131.9 132.1 456.3
Manjimup 03/09 07:40 9.6 99 9.07 9.5 11 15 1018.1 3 20.8 28.2 44.2 116.2 111.0 381.9
Marble Bar 03/09 07:40 24.4 43 9.57 11 0 0 1015.7 0 21.1 24.5 38.4 100.9 97.5 336.7
Mardie 03/09 07:40 21.4 46 8.62 9.3 9 15 1015.3 0 19.3 23.9 36.4 95.4 89.7 309.0
Meekatharra 03/09 07:40 14.1 58 7.04 6 19 22 1018.4 0 16.2 23.5 33.8 88.4 78.4 268.5
Millendon (Swan Valley) 03/09 07:40 13.4 97 11.28 12.9 4 7 1019.8 1.2 25.4 30.9 51.7 136.1 137.0 473.1
Morawa Airport 03/09 07:40 8.1 90 7.49 6.5 0 0 1021.2 0 17.5 26.0 38.4 100.6 91.0 311.9
Mount Keith 03/09 07:40 13.9 57 6.83 5.5 11 15 1013.1 0 15.8 23.1 32.9 86.0 75.7 258.9
Mount Magnet Airport 03/09 07:40 11.4 66 6.78 5.3 11 15 1020.1 0 15.8 23.9 34.0 88.9 78.0 266.5
Munglinup West 03/09 07:40 11.9 97 10.27 11.4 4 7 1019.6 2.8 23.3 29.6 48.2 126.7 124.8 430.6
Newdegate 03/09 07:40 11.1 94 9.47 10.2 9 11 1019.2 2.8 21.6 28.4 45.2 118.6 114.6 394.6
Newman Airport 03/09 07:40 20.2 33 5.77 3.4 7 9 1016.3 0 13.3 20.2 27.0 70.3 58.3 198.7
Norseman Airport 03/09 07:40 11 90 9.01 9.4 9 9 1020.1 0 20.6 27.7 43.3 113.6 108.3 372.7
North Island 03/09 07:40 17.4 56 8.3 8.5 13 17 1021.2 0 18.8 24.7 37.2 97.6 90.8 312.3
Onslow Airport 03/09 07:40 19.6 55 9.28 10.3 28 33 1017.1 0 20.7 25.4 39.7 104.3 100.1 345.1
Paraburdoo 03/09 07:40 21.3 34 6.34 4.8 0 0 1016.1 0 14.5 20.7 28.5 74.3 63.7 217.8
Pearce 03/09 07:40 13.2 94 10.79 12.3 11 13 1019.8 3.2 24.3 30.0 49.7 130.7 130.2 449.5
Perth 03/09 07:40 13.8 99 11.8 13.6 7 11 1019.9 1.6 26.4 31.6 53.8 141.6 143.9 497.4
Perth Airport 03/09 07:40 13.6 97 11.42 13.1 11 17 1019.5 1.8 25.6 31.0 52.2 137.4 138.6 479.0
Port Hedland 03/09 07:40 23.7 83 17.75 20.6 13 17 1015.5 0 38.4 38.4 72.7 192.3 209.7 728.1
Portable Btsa (Dfes) 03/09 07:30 12.1 71 7.61 7.1 6 6 1013.1 0 17.6 24.8 36.7 96.1 87.4 299.9
Portable Btsd (Dfes) 03/09 07:30 10.9 76 7.56 6.9 2 4 1013.1 0 17.5 25.0 37.0 97.0 88.1 302.1
Portable Btse (Dfes) 03/09 06:30 16.8 72 10.29 11.8 4 6 1013.1 0 23.0 27.7 45.0 118.5 116.8 403.1
Portable Btsf (Dfes) 03/09 07:00 14.4 77 9.52 10.5 2 4 1013.1 0 21.5 27.2 43.2 113.6 109.9 378.8
Portable Btsh (Dfes) 03/09 00:50 6.5 15 1.13 -18.2 0 0 1013.1 0 4.0 16.7 15.3 38.9 14.5 42.6
Portable Btsj (Dfes) 03/09 07:30 13.4 97 11.28 12.9 7 9 1013.1 2.2 25.4 30.6 51.4 135.3 136.2 470.7
Portable Btsl (Dfes) 03/09 07:30 9.4 68 6.15 3.9 2 4 1013.1 0 14.5 23.2 32.1 83.9 71.4 243.1
Portable Btsm (Dfes) 03/09 07:30 19.1 40 6.56 5.2 4 6 1013.1 0 15.0 21.4 29.9 78.1 67.8 231.9
Portable Btsn (Dfes) 03/09 07:30 11.1 61 6.15 4 11 15 1013.1 0 14.5 22.8 31.4 82.1 69.8 238.0
Portable Btso (Dfes) 03/09 07:30 7 97 7.52 6.5 0 0 1013.1 1.2 17.6 26.1 38.7 101.5 92.1 315.7
Red Rocks Point 03/09 07:40 14.2 87 10.62 12.1 9 13 1021.1 0 23.9 29.5 48.4 127.2 126.2 435.7
Rocky Gully South 03/09 07:40 10 97 9.12 9.5 6 11 1013.1 3.2 20.9 27.9 44.0 115.6 110.7 380.9
Roebourne Airport 03/09 07:40 22.1 79 15.42 18.3 0 0 1015.6 0 33.6 34.8 63.5 167.7 179.0 621.0
Rottnest Island 03/09 07:40 14.7 94 11.83 13.7 13 17 1019.4 2.2 26.5 31.4 53.3 140.3 142.6 492.9
Salmon Gums Rs 03/09 07:40 12.6 99 10.95 12.4 4 7 1013.1 0 24.7 30.3 50.4 132.8 132.9 458.8
Shannon 03/09 07:40 9.7 101 9.31 9.7 11 17 1013.1 4.2 21.3 28.3 45.0 118.2 113.8 391.9
Shark Bay Airport 03/09 07:40 14.7 75 9.44 10.3 13 17 1020.3 0 21.3 27.3 43.1 113.1 109.0 375.7
Solomon Airport 03/09 07:40 20.6 36 6.44 5 4 6 1016.5 0 14.7 21.0 29.1 75.9 65.4 223.6
Southern Cross Airport 03/09 07:40 7.2 100 7.85 7.2 0 0 1020.4 0 18.3 26.9 40.4 105.8 97.1 333.0
Swanbourne 03/09 07:40 13.5 101 11.81 13.5 6 9 1013.1 1.8 26.5 31.5 53.7 141.4 143.9 497.3
Telfer 03/09 07:40 26.1 35 8.57 9.5 20 24 1014.9 0 19.0 22.6 34.2 89.5 84.0 289.6
Thevenard Island 03/09 07:40 20.5 61 10.85 12.7 32 41 1016.9 0 24.0 27.6 45.4 119.3 118.9 411.0
Troughton Island 03/09 09:10 28 70 19.04 22 9 15 1017.8 0 40.7 38.9 74.7 197.5 217.2 754.9
Truscott 03/09 09:10 25.2 81 18.86 21.7 7 9 1017.4 0 40.6 39.9 76.6 202.6 222.7 773.4
Walpole North 03/09 07:40 11 93 9.31 9.9 11 17 1017.5 0.6 21.3 28.1 44.4 116.8 112.3 386.7
Wandering 03/09 07:40 10.9 97 9.65 10.4 7 9 1013.1 0.2 22.0 28.6 45.8 120.3 116.9 402.7
Warburton 03/09 09:10 21.9 40 7.72 7.7 11 15 1017 0 17.4 22.5 33.0 86.4 78.8 270.7
West Angelas 03/09 07:40 20.7 32 5.76 3.4 11 17 1017 0 13.3 20.1 26.8 69.8 57.9 197.2
West Musgrave Airport 03/09 07:40 21.8 40 7.67 7.6 19 22 1013.1 0 17.3 22.4 32.7 85.7 78.0 268.1
Wiluna Airport 03/09 07:40 15.2 57 7.4 6.7 15 19 1017.9 0 17.0 23.8 34.7 90.7 81.8 280.3
Witchcliffe West 03/09 07:40 10.7 98 9.63 10.4 9 13 1018.1 1.8 22.0 28.8 46.0 121.0 117.4 404.4
Wyndham Airport 03/09 09:10 26.3 53 13.12 16 11 15 1018 0 28.4 29.4 50.9 134.2 138.9 481.7
Yampi Sound (Defence) 03/09 07:40 24.4 70 15.58 18.6 4 6 1021.1 0 33.7 34.4 62.6 165.4 176.6 613.0

Last Refresh: 03-Sep-2026 09:23:26

Bureau of Meteorology